Byron, Wisconsin
Current Conditions -  °F | °C
As of 6:53 AM on Tuesday 21 Oct 2014 (Local Time) from KFLD Reporting Station
Overcast Overcast  
Wind Chill: 38°   Ceiling: 2000
Heat Index: 45°   Visibility: 10mi
Dew Point: 37°   Wind: 16mph
Humidity: 74%   Direction: 40°NE
Pressure: 30.15"   Gusts: NA
Location:  43.65°N, 88.45°W
Report Text: KFLD 211153Z AUTO 04014KT 10SM OVC020 07/03 A3015 RMK AO2 SLP215 T00720028 10089 20067 53023
Loading
Personal Weather Stations






























Interactive Weather Map
Tropical Storm Tracking
New forecast layout! Learn more

10-Day Weather Forecast

Advertisements
Track Severe Weather on mobile